Time;durP1;ratioP1;P1;durP2;ratioP2;P2;SDS_P1;SDS_P2;PMS_P1;PMS_P2;Temp;Humidity;BMP_temperature;BMP_pressure;BME280_temperature;BME280_humidity;BME280_pressure;Samples;Min_cycle;Max_cycle;Signal;HPM_P1;HPM_P2
2021/10/01 00:02:20;;;;;;;0.80;0.80;;;9.80;99.90;;;;;;5093421;28;20174;-70
2021/10/01 00:04:46;;;;;;;1.63;0.90;;;9.90;99.90;;;;;;5093313;28;20177;-70
2021/10/01 00:07:11;;;;;;;0.70;0.70;;;9.90;99.90;;;;;;5093347;28;20245;-70
2021/10/01 00:09:41;;;;;;;1.03;0.93;;;9.90;99.90;;;;;;5093369;28;20549;-71
2021/10/01 00:12:07;;;;;;;1.33;1.10;;;9.90;99.90;;;;;;5093382;28;20637;-70
2021/10/01 00:14:34;;;;;;;1.50;0.90;;;9.90;99.90;;;;;;5093206;28;20495;-71
2021/10/01 00:17:01;;;;;;;1.60;1.27;;;9.90;99.90;;;;;;5092950;28;20538;-71
2021/10/01 00:19:26;;;;;;;0.90;0.90;;;9.90;99.90;;;;;;5093118;28;20414;-70
2021/10/01 00:21:52;;;;;;;0.80;0.80;;;9.90;99.90;;;;;;5092584;28;20416;-71
2021/10/01 00:24:18;;;;;;;1.10;1.00;;;9.90;99.90;;;;;;5093030;28;20589;-70
2021/10/01 00:26:44;;;;;;;1.57;1.00;;;9.80;99.90;;;;;;5093071;28;20312;-71
2021/10/01 00:29:10;;;;;;;2.13;1.20;;;9.90;99.90;;;;;;5092841;28;20228;-70
2021/10/01 00:31:36;;;;;;;1.10;1.00;;;9.90;99.90;;;;;;5092767;28;20548;-71
2021/10/01 00:34:03;;;;;;;1.30;1.20;;;9.90;99.90;;;;;;5093037;28;20902;-71
2021/10/01 00:36:29;;;;;;;0.83;0.83;;;9.90;99.90;;;;;;5093254;28;20194;-71
2021/10/01 00:38:57;;;;;;;1.43;0.97;;;9.90;99.90;;;;;;5093121;28;20422;-71
2021/10/01 00:41:23;;;;;;;1.77;1.67;;;9.90;99.90;;;;;;5092908;28;20577;-70
2021/10/01 00:43:48;;;;;;;1.27;1.17;;;9.80;99.90;;;;;;5092844;28;20789;-71
2021/10/01 00:46:14;;;;;;;3.87;1.17;;;9.80;99.90;;;;;;5093023;28;20425;-71
2021/10/01 00:48:39;;;;;;;2.50;1.30;;;9.80;99.90;;;;;;5092771;28;20183;-71
2021/10/01 00:51:06;;;;;;;1.73;1.40;;;9.80;99.90;;;;;;5093149;28;20166;-70
2021/10/01 00:53:33;;;;;;;1.20;1.10;;;9.70;99.90;;;;;;5093075;28;20272;-70
2021/10/01 00:55:59;;;;;;;4.07;1.40;;;9.70;99.90;;;;;;5093143;28;20758;-71
2021/10/01 00:58:24;;;;;;;1.47;1.10;;;9.70;99.90;;;;;;5092566;28;20443;-71
2021/10/01 01:01:09;;;;;;;1.30;1.20;;;9.60;99.90;;;;;;5092159;28;20207;-71
2021/10/01 01:03:48;;;;;;;1.40;1.30;;;9.60;99.90;;;;;;5092424;28;20166;-71
2021/10/01 01:06:40;;;;;;;2.80;1.40;;;9.60;99.90;;;;;;5092160;28;20860;-70
2021/10/01 01:09:19;;;;;;;1.20;1.10;;;9.60;99.90;;;;;;5092194;28;20546;-70
2021/10/01 01:12:04;;;;;;;1.23;1.13;;;9.60;99.90;;;;;;5092950;28;20392;-70
2021/10/01 01:14:40;;;;;;;1.40;1.10;;;9.50;99.90;;;;;;5092972;28;20402;-70
2021/10/01 01:17:09;;;;;;;1.70;1.17;;;9.40;99.90;;;;;;5092649;28;20444;-70
2021/10/01 01:20:03;;;;;;;1.40;1.30;;;9.40;99.90;;;;;;5092439;28;20495;-71
2021/10/01 01:22:37;;;;;;;1.17;1.07;;;9.40;99.90;;;;;;5092098;28;20400;-70
2021/10/01 01:25:15;;;;;;;1.20;1.10;;;9.40;99.90;;;;;;5092148;28;20427;-71
2021/10/01 01:28:00;;;;;;;1.17;1.07;;;9.40;99.90;;;;;;5092171;28;20409;-71
2021/10/01 01:30:35;;;;;;;1.10;1.00;;;9.40;99.90;;;;;;5090844;28;20482;-71
2021/10/01 01:33:02;;;;;;;1.30;1.20;;;9.40;99.90;;;;;;5091292;28;20399;-71
2021/10/01 01:35:34;;;;;;;1.10;0.97;;;9.30;99.90;;;;;;5089571;28;20523;-71
2021/10/01 01:38:05;;;;;;;0.80;0.80;;;9.30;99.90;;;;;;5092101;28;20408;-71
2021/10/01 01:40:32;;;;;;;1.20;1.10;;;9.30;99.90;;;;;;5091762;28;20417;-71
2021/10/01 01:43:00;;;;;;;1.20;1.00;;;9.30;99.90;;;;;;5091777;28;20456;-71
2021/10/01 01:45:27;;;;;;;1.10;0.90;;;9.30;99.90;;;;;;5091570;28;20438;-71
2021/10/01 01:47:53;;;;;;;1.47;1.37;;;9.40;99.90;;;;;;5091840;28;20907;-71
2021/10/01 01:50:20;;;;;;;1.20;1.10;;;9.30;99.90;;;;;;5091393;28;20436;-70
2021/10/01 01:52:46;;;;;;;1.23;1.07;;;9.30;99.90;;;;;;5091655;28;20400;-70
2021/10/01 01:55:13;;;;;;;1.20;1.00;;;9.30;99.90;;;;;;5090830;28;20834;-70
2021/10/01 01:57:42;;;;;;;1.93;1.13;;;9.30;99.90;;;;;;5091855;28;20438;-70
2021/10/01 02:00:08;;;;;;;1.37;1.27;;;9.20;99.90;;;;;;5091936;28;20408;-70
2021/10/01 02:02:35;;;;;;;1.30;1.20;;;9.20;99.90;;;;;;5091481;28;20404;-70
2021/10/01 02:05:02;;;;;;;1.40;1.30;;;9.20;99.90;;;;;;5091161;28;20952;-70
2021/10/01 02:07:29;;;;;;;1.73;1.10;;;9.20;99.90;;;;;;5091741;28;20415;-70
2021/10/01 02:09:56;;;;;;;1.30;1.20;;;9.10;99.90;;;;;;5091445;28;20451;-70
2021/10/01 02:12:22;;;;;;;1.43;0.90;;;9.20;99.90;;;;;;5091500;28;20936;-70
2021/10/01 02:14:50;;;;;;;1.50;1.30;;;9.10;99.90;;;;;;5091613;28;20398;-70
2021/10/01 02:17:17;;;;;;;1.47;1.37;;;9.10;99.90;;;;;;5091630;28;20425;-70
2021/10/01 02:19:46;;;;;;;1.80;1.70;;;9.10;99.90;;;;;;5091668;28;20406;-70
2021/10/01 02:22:15;;;;;;;1.37;1.27;;;9.00;99.90;;;;;;5091829;28;20995;-70
2021/10/01 02:24:41;;;;;;;1.70;1.13;;;9.10;99.90;;;;;;5091197;28;20422;-70
2021/10/01 02:27:19;;;;;;;1.23;1.13;;;9.10;99.90;;;;;;5091437;28;20442;-70
2021/10/01 02:29:55;;;;;;;1.97;1.53;;;9.10;99.90;;;;;;5091097;28;20508;-70
2021/10/01 02:32:29;;;;;;;1.53;1.43;;;9.10;99.90;;;;;;5091514;28;20839;-70
2021/10/01 02:34:55;;;;;;;1.37;1.27;;;9.10;99.90;;;;;;5091128;28;20400;-70
2021/10/01 02:37:20;;;;;;;1.63;1.53;;;9.10;99.90;;;;;;5091190;28;20776;-70
2021/10/01 02:39:49;;;;;;;1.20;1.10;;;9.00;99.90;;;;;;5091249;28;20218;-70
2021/10/01 02:42:16;;;;;;;1.73;1.47;;;9.00;99.90;;;;;;5090951;28;20220;-70
2021/10/01 02:44:43;;;;;;;1.30;1.20;;;9.00;99.90;;;;;;5092536;28;20428;-70
2021/10/01 02:47:09;;;;;;;1.23;1.13;;;9.00;99.90;;;;;;5095144;28;20422;-70
2021/10/01 02:49:36;;;;;;;1.50;1.30;;;9.00;99.90;;;;;;5094720;28;20512;-70
2021/10/01 02:52:16;;;;;;;1.40;1.30;;;8.90;99.90;;;;;;5094785;28;20404;-70
2021/10/01 02:54:49;;;;;;;4.80;1.50;;;9.00;99.90;;;;;;5094449;28;20448;-70
2021/10/01 02:57:21;;;;;;;1.40;1.30;;;8.90;99.90;;;;;;5094994;28;20409;-70
2021/10/01 02:59:49;;;;;;;1.60;1.47;;;8.90;99.90;;;;;;5094664;28;20403;-70
2021/10/01 03:02:16;;;;;;;1.33;1.23;;;8.90;99.90;;;;;;5094631;28;20457;-70
2021/10/01 03:04:45;;;;;;;1.40;1.30;;;8.90;99.90;;;;;;5094517;28;20447;-70
2021/10/01 03:07:13;;;;;;;1.60;1.40;;;8.90;99.90;;;;;;5094433;28;20429;-70
2021/10/01 03:09:41;;;;;;;1.43;1.33;;;8.90;99.90;;;;;;5094497;28;20459;-70
2021/10/01 03:12:07;;;;;;;1.93;1.70;;;8.90;99.90;;;;;;5094720;28;20410;-70
2021/10/01 03:14:34;;;;;;;1.50;1.37;;;8.90;99.90;;;;;;5095062;28;20404;-70
2021/10/01 03:17:00;;;;;;;1.17;1.07;;;8.80;99.90;;;;;;5094508;28;20212;-70
2021/10/01 03:19:26;;;;;;;1.30;1.20;;;8.80;99.90;;;;;;5094707;28;20878;-70
2021/10/01 03:21:54;;;;;;;1.47;1.37;;;8.80;99.90;;;;;;5094021;28;20416;-70
2021/10/01 03:24:21;;;;;;;1.60;1.50;;;8.80;99.90;;;;;;5094102;28;20288;-70
2021/10/01 03:26:48;;;;;;;2.37;1.43;;;8.80;99.90;;;;;;5094062;28;20946;-70
2021/10/01 03:29:14;;;;;;;1.33;1.23;;;8.80;99.90;;;;;;5094070;28;20448;-71
2021/10/01 03:31:40;;;;;;;1.77;1.67;;;8.70;99.90;;;;;;5094205;28;20421;-70
2021/10/01 03:34:07;;;;;;;1.87;1.20;;;8.80;99.90;;;;;;5092884;28;20874;-70
2021/10/01 03:36:34;;;;;;;2.03;1.50;;;8.80;99.90;;;;;;5093756;28;20435;-70
2021/10/01 03:39:00;;;;;;;1.90;1.70;;;8.80;99.90;;;;;;5093923;28;20404;-70
2021/10/01 03:41:26;;;;;;;2.03;1.43;;;8.70;99.90;;;;;;5093879;28;20414;-70
2021/10/01 03:43:51;;;;;;;1.50;1.33;;;8.70;99.90;;;;;;5093527;28;20264;-70
2021/10/01 03:46:17;;;;;;;2.40;1.37;;;8.80;99.90;;;;;;5093661;28;20566;-70
2021/10/01 03:48:42;;;;;;;1.73;1.30;;;8.80;99.90;;;;;;5094116;28;20245;-70
2021/10/01 03:51:08;;;;;;;1.20;1.10;;;8.70;99.90;;;;;;5093542;28;20608;-70
2021/10/01 03:53:33;;;;;;;1.43;1.33;;;8.80;99.90;;;;;;5093833;28;20244;-70
2021/10/01 03:55:59;;;;;;;1.37;1.27;;;8.80;99.90;;;;;;5092897;28;20679;-70
2021/10/01 03:58:24;;;;;;;2.03;1.93;;;8.70;99.90;;;;;;5093430;28;20190;-70
2021/10/01 04:00:50;;;;;;;1.40;1.30;;;8.80;99.90;;;;;;5093539;28;20272;-70
2021/10/01 04:03:15;;;;;;;1.50;1.40;;;8.70;99.90;;;;;;5093347;28;20220;-70
2021/10/01 04:05:41;;;;;;;1.90;1.80;;;8.70;99.90;;;;;;5093208;28;20183;-70
2021/10/01 04:08:08;;;;;;;1.43;1.33;;;8.70;99.90;;;;;;5093426;28;20633;-70
2021/10/01 04:10:34;;;;;;;3.53;1.40;;;8.70;99.90;;;;;;5093408;28;20627;-70
2021/10/01 04:12:59;;;;;;;1.73;1.63;;;8.70;99.90;;;;;;5093552;28;20450;-70
2021/10/01 04:15:25;;;;;;;2.17;1.80;;;8.60;99.90;;;;;;5093224;28;20223;-70
2021/10/01 04:17:50;;;;;;;1.30;1.20;;;8.50;99.90;;;;;;5093443;28;20836;-70
2021/10/01 04:20:16;;;;;;;1.80;1.70;;;8.60;99.90;;;;;;5093508;28;20176;-70
2021/10/01 04:22:41;;;;;;;1.53;1.43;;;8.50;99.90;;;;;;5092969;28;20667;-70
2021/10/01 04:25:07;;;;;;;1.60;1.40;;;8.50;99.90;;;;;;5093049;28;20201;-70
2021/10/01 04:27:33;;;;;;;1.40;1.30;;;8.60;99.90;;;;;;5093021;28;20636;-72
2021/10/01 04:30:00;;;;;;;1.60;1.50;;;8.50;99.90;;;;;;5092894;28;20444;-72
2021/10/01 04:32:25;;;;;;;2.17;1.80;;;8.50;99.90;;;;;;5092871;28;20258;-69
2021/10/01 04:35:00;;;;;;;2.20;1.70;;;8.50;99.90;;;;;;5093330;28;20431;-70
2021/10/01 04:37:26;;;;;;;2.87;1.73;;;8.50;99.90;;;;;;5093060;28;20196;-70
2021/10/01 04:39:52;;;;;;;2.40;1.60;;;8.50;99.90;;;;;;5091581;28;20463;-71
2021/10/01 04:42:19;;;;;;;1.50;1.40;;;8.50;99.90;;;;;;5092810;28;20249;-71
2021/10/01 04:44:44;;;;;;;1.50;1.40;;;8.40;99.90;;;;;;5092673;28;20438;-72
2021/10/01 04:47:10;;;;;;;1.80;1.70;;;8.40;99.90;;;;;;5092455;28;20412;-70
2021/10/01 04:49:35;;;;;;;3.10;2.00;;;8.40;99.90;;;;;;5091402;28;20352;-70
2021/10/01 04:52:00;;;;;;;1.73;1.63;;;8.30;99.90;;;;;;5092421;28;20175;-70
2021/10/01 04:54:26;;;;;;;1.40;1.30;;;8.40;99.90;;;;;;5092414;28;20656;-70
2021/10/01 04:56:51;;;;;;;1.40;1.30;;;8.40;99.90;;;;;;5092413;28;20597;-70
2021/10/01 04:59:17;;;;;;;2.10;1.97;;;8.40;99.90;;;;;;5092404;28;20176;-70
2021/10/01 05:01:42;;;;;;;1.70;1.60;;;8.40;99.90;;;;;;5092264;28;20545;-70
2021/10/01 05:04:08;;;;;;;2.30;1.70;;;8.40;99.90;;;;;;5092064;28;20181;-70
2021/10/01 05:06:33;;;;;;;1.70;1.60;;;8.40;99.90;;;;;;5092165;28;20190;-70
2021/10/01 05:08:59;;;;;;;1.77;1.40;;;8.40;99.90;;;;;;5092108;28;20178;-70
2021/10/01 05:11:24;;;;;;;1.70;1.60;;;8.50;99.90;;;;;;5092171;28;20253;-70
2021/10/01 05:13:49;;;;;;;5.10;1.37;;;8.50;99.90;;;;;;5092129;28;20173;-70
2021/10/01 05:16:15;;;;;;;2.07;1.43;;;8.60;99.90;;;;;;5090525;28;20217;-70
2021/10/01 05:18:40;;;;;;;1.70;1.60;;;8.60;99.90;;;;;;5091919;28;20314;-70
2021/10/01 05:21:06;;;;;;;1.93;1.73;;;8.60;99.90;;;;;;5091976;28;20272;-70
2021/10/01 05:23:32;;;;;;;2.27;2.07;;;8.60;99.90;;;;;;5091753;28;20173;-70
2021/10/01 05:25:58;;;;;;;2.23;1.80;;;8.60;99.90;;;;;;5091816;28;20189;-70
2021/10/01 05:28:24;;;;;;;1.23;1.13;;;8.70;99.90;;;;;;5092054;28;20409;-70
2021/10/01 05:30:50;;;;;;;1.43;1.33;;;8.70;99.90;;;;;;5091937;28;20890;-70
2021/10/01 05:33:15;;;;;;;1.70;1.60;;;8.70;99.90;;;;;;5091524;28;20192;-70
2021/10/01 05:35:43;;;;;;;1.50;1.40;;;8.70;99.90;;;;;;5091730;28;20267;-70
2021/10/01 05:38:09;;;;;;;2.60;2.40;;;8.70;99.90;;;;;;5091890;28;20196;-70
2021/10/01 05:40:36;;;;;;;1.70;1.60;;;8.80;99.90;;;;;;5091809;28;20418;-70
2021/10/01 05:43:02;;;;;;;1.50;1.40;;;8.80;99.90;;;;;;5092342;28;20409;-70
2021/10/01 05:45:28;;;;;;;2.10;1.90;;;8.90;99.90;;;;;;5091572;28;20843;-70
2021/10/01 05:47:53;;;;;;;1.33;1.23;;;8.90;99.90;;;;;;5091677;28;20404;-70
2021/10/01 05:50:21;;;;;;;2.03;1.50;;;9.00;99.90;;;;;;5092083;28;20201;-70
2021/10/01 05:55:12;;;;;;;6.13;2.07;;;9.20;99.90;;;;;;5091977;28;20474;-70
2021/10/01 05:57:37;;;;;;;1.90;1.67;;;9.20;99.90;;;;;;5091941;28;20175;-70
2021/10/01 06:00:05;;;;;;;4.30;1.80;;;9.30;99.90;;;;;;5090326;28;20228;-70
2021/10/01 06:02:30;;;;;;;3.47;2.40;;;9.40;99.90;;;;;;5091739;28;20207;-70
2021/10/01 06:04:56;;;;;;;2.60;1.40;;;9.60;99.90;;;;;;5091351;28;20425;-70
2021/10/01 06:07:21;;;;;;;3.23;1.73;;;9.70;99.90;;;;;;5091431;28;20183;-70
2021/10/01 06:09:48;;;;;;;1.33;1.23;;;9.80;99.90;;;;;;5091622;28;20193;-70
2021/10/01 06:12:14;;;;;;;1.63;1.53;;;9.80;99.90;;;;;;5091433;28;20166;-70
2021/10/01 06:14:40;;;;;;;2.10;1.90;;;9.90;99.90;;;;;;5091469;28;20407;-71
2021/10/01 06:17:06;;;;;;;1.87;1.67;;;10.10;99.90;;;;;;5091297;28;20431;-71
2021/10/01 06:19:33;;;;;;;1.13;1.03;;;10.30;99.90;;;;;;5092598;28;20415;-70
2021/10/01 06:22:04;;;;;;;2.20;2.10;;;10.40;99.90;;;;;;5095519;28;20946;-70
2021/10/01 06:24:29;;;;;;;2.33;2.13;;;10.80;99.90;;;;;;5095448;28;20420;-70
2021/10/01 06:26:55;;;;;;;1.93;1.10;;;11.20;99.90;;;;;;5095823;28;20492;-70
2021/10/01 06:29:21;;;;;;;2.00;1.80;;;11.50;99.90;;;;;;5096059;28;20194;-70
2021/10/01 06:31:46;;;;;;;2.90;1.70;;;11.40;99.90;;;;;;5096068;28;20534;-70
2021/10/01 06:34:12;;;;;;;1.40;1.30;;;11.20;99.90;;;;;;5095993;28;20185;-70
2021/10/01 06:36:38;;;;;;;1.53;1.33;;;11.60;99.90;;;;;;5096157;28;20663;-70
2021/10/01 06:39:06;;;;;;;1.43;1.33;;;11.60;99.90;;;;;;5095708;28;20177;-70
2021/10/01 06:41:33;;;;;;;3.03;1.70;;;12.00;99.90;;;;;;5096029;28;20490;-70
2021/10/01 06:44:01;;;;;;;1.17;1.07;;;12.30;99.90;;;;;;5095161;28;20416;-70
2021/10/01 06:49:03;;;;;;;1.30;1.20;;;12.00;99.90;;;;;;5095088;28;20407;-70
2021/10/01 06:51:51;;;;;;;2.10;1.47;;;12.50;99.90;;;;;;5095220;28;20169;-70
2021/10/01 07:29:28;;;;;;;1.40;1.10;;;12.30;99.90;;;;;;5095298;28;20392;-70
2021/10/01 07:35:53;;;;;;;1.00;0.90;;;12.90;99.90;;;;;;5095587;28;20476;-71
2021/10/01 08:19:30;;;;;;;1.00;0.90;;;14.90;99.90;;;;;;5093644;28;20390;-70
2021/10/01 08:21:57;;;;;;;1.30;1.20;;;15.40;99.90;;;;;;5092137;28;20411;-71
2021/10/01 08:24:27;;;;;;;1.33;1.23;;;15.30;99.90;;;;;;5093497;28;20407;-70
2021/10/01 08:26:52;;;;;;;1.80;1.60;;;15.70;99.90;;;;;;5093124;28;20858;-69
2021/10/01 08:29:19;;;;;;;5.87;1.30;;;15.70;99.90;;;;;;5094620;28;20472;-69
2021/10/01 08:31:45;;;;;;;0.80;0.80;;;15.70;99.90;;;;;;5094551;28;20183;-70
2021/10/01 08:34:11;;;;;;;2.13;1.10;;;15.30;99.90;;;;;;5093533;28;20401;-70
2021/10/01 08:36:37;;;;;;;1.80;1.40;;;15.00;99.90;;;;;;5093625;28;20563;-70
2021/10/01 08:39:04;;;;;;;0.70;0.70;;;15.40;99.90;;;;;;5093306;28;20456;-70
2021/10/01 08:41:30;;;;;;;0.90;0.83;;;15.50;99.90;;;;;;5094409;28;20807;-70
2021/10/01 08:43:57;;;;;;;0.90;0.70;;;15.60;99.90;;;;;;5094161;28;20411;-69
2021/10/01 08:46:22;;;;;;;0.80;0.80;;;15.40;99.90;;;;;;5093465;28;20699;-69
2021/10/01 08:48:49;;;;;;;1.33;1.00;;;15.90;99.90;;;;;;5093354;28;20452;-70
2021/10/01 08:51:15;;;;;;;0.87;0.87;;;15.40;99.90;;;;;;5094535;28;20182;-69
2021/10/01 08:53:41;;;;;;;1.10;0.90;;;15.40;99.90;;;;;;5094631;28;20446;-70
2021/10/01 08:56:07;;;;;;;0.97;0.77;;;16.10;99.90;;;;;;5096108;28;20193;-70
2021/10/01 08:58:33;;;;;;;1.40;1.10;;;16.40;99.90;;;;;;5094414;28;20388;-70
2021/10/01 09:01:01;;;;;;;1.67;0.87;;;16.30;99.90;;;;;;5095513;28;20399;-70
2021/10/01 09:03:27;;;;;;;0.93;0.93;;;16.10;99.90;;;;;;5092633;28;20534;-70
2021/10/01 09:05:52;;;;;;;1.60;0.97;;;16.10;99.90;;;;;;5092680;28;20427;-69
2021/10/01 09:08:20;;;;;;;1.97;1.20;;;16.00;99.90;;;;;;5093219;28;20398;-69
2021/10/01 09:11:00;;;;;;;1.13;1.00;;;16.10;99.90;;;;;;5093358;28;20562;-70
2021/10/01 09:13:27;;;;;;;1.20;0.90;;;16.00;99.90;;;;;;5093929;28;20456;-70
2021/10/01 09:16:05;;;;;;;1.30;1.00;;;16.00;99.90;;;;;;5096984;28;20465;-69
2021/10/01 09:18:33;;;;;;;1.63;1.43;;;16.00;99.90;;;;;;5094967;28;20396;-70
2021/10/01 09:21:26;;;;;;;1.00;0.90;;;16.20;99.90;;;;;;5094417;28;20466;-70
2021/10/01 09:24:02;;;;;;;1.00;0.90;;;16.10;99.90;;;;;;5092820;28;20426;-70
2021/10/01 09:26:30;;;;;;;1.20;0.90;;;15.90;99.90;;;;;;5094235;28;20423;-70
2021/10/01 09:29:02;;;;;;;0.80;0.80;;;16.00;99.90;;;;;;5096654;28;20411;-70
2021/10/01 09:31:36;;;;;;;0.70;0.70;;;16.10;99.90;;;;;;5096028;28;20397;-70
2021/10/01 09:34:03;;;;;;;0.80;0.80;;;16.00;99.90;;;;;;5096167;28;20400;-70
2021/10/01 09:36:29;;;;;;;0.80;0.70;;;15.90;99.90;;;;;;5095653;28;20459;-70
2021/10/01 09:38:56;;;;;;;0.87;0.80;;;16.00;99.90;;;;;;5097226;28;20405;-70
2021/10/01 09:41:25;;;;;;;1.27;0.80;;;16.30;99.90;;;;;;5096135;28;20399;-70
2021/10/01 09:44:04;;;;;;;1.00;0.77;;;16.30;99.90;;;;;;5095448;28;20822;-70
2021/10/01 09:46:39;;;;;;;0.70;0.70;;;16.50;99.90;;;;;;5094043;28;20513;-70
2021/10/01 09:49:06;;;;;;;1.00;0.93;;;16.30;99.90;;;;;;5093501;28;20400;-70
2021/10/01 09:51:34;;;;;;;1.67;0.80;;;16.40;99.90;;;;;;5093018;28;20412;-70
2021/10/01 09:54:08;;;;;;;1.30;1.00;;;16.50;99.90;;;;;;5093275;28;20406;-70
2021/10/01 09:56:34;;;;;;;1.83;0.90;;;16.70;99.90;;;;;;5093826;28;20954;-70
2021/10/01 09:59:06;;;;;;;1.23;1.00;;;16.90;99.90;;;;;;5093546;28;20450;-70
2021/10/01 10:01:32;;;;;;;1.13;0.90;;;16.80;99.90;;;;;;5094415;28;20166;-69
2021/10/01 10:03:57;;;;;;;5.00;0.90;;;16.60;99.90;;;;;;5095263;28;20415;-70
2021/10/01 10:06:23;;;;;;;2.20;1.00;;;16.40;99.90;;;;;;5094977;28;20487;-70
2021/10/01 10:08:48;;;;;;;1.30;1.13;;;16.50;99.90;;;;;;5094686;28;20363;-70
2021/10/01 10:11:18;;;;;;;1.90;0.87;;;16.50;99.90;;;;;;5095042;28;20198;-70
2021/10/01 10:13:53;;;;;;;1.00;0.80;;;16.70;99.90;;;;;;5093591;28;20170;-70
2021/10/01 10:16:22;;;;;;;1.40;0.90;;;16.60;99.90;;;;;;5094135;28;20564;-70
2021/10/01 10:18:56;;;;;;;0.80;0.70;;;16.80;99.90;;;;;;5095012;28;20498;-70
2021/10/01 10:21:21;;;;;;;1.93;1.70;;;17.20;99.90;;;;;;5092292;28;20410;-70
2021/10/01 10:23:46;;;;;;;1.07;0.90;;;16.70;99.90;;;;;;5092870;28;20398;-69
2021/10/01 10:26:12;;;;;;;1.03;1.00;;;16.60;99.90;;;;;;5101160;28;20192;-70
2021/10/01 10:28:40;;;;;;;1.10;0.90;;;16.90;99.90;;;;;;5096425;28;20214;-70
2021/10/01 10:31:06;;;;;;;1.10;1.00;;;16.90;99.90;;;;;;5095593;28;20451;-70
2021/10/01 10:33:50;;;;;;;1.50;1.00;;;17.10;99.90;;;;;;5093039;28;20830;-70
2021/10/01 10:36:26;;;;;;;0.87;0.87;;;17.50;99.90;;;;;;5094274;28;20437;-70
2021/10/01 10:38:52;;;;;;;1.10;0.90;;;17.40;99.90;;;;;;5094017;28;20414;-69
2021/10/01 10:41:28;;;;;;;0.70;0.70;;;17.50;99.90;;;;;;5092281;28;20404;-70
2021/10/01 10:43:55;;;;;;;0.80;0.80;;;17.30;99.90;;;;;;5091420;28;20915;-70
2021/10/01 10:46:35;;;;;;;0.90;0.90;;;17.20;99.90;;;;;;5091794;28;20445;-70
2021/10/01 10:49:24;;;;;;;0.77;0.77;;;17.20;99.90;;;;;;5091766;28;20420;-70
2021/10/01 10:51:58;;;;;;;0.93;0.83;;;17.30;99.90;;;;;;5093088;28;20980;-70
2021/10/01 10:54:24;;;;;;;0.80;0.80;;;17.40;99.90;;;;;;5093368;28;20406;-70
2021/10/01 10:57:18;;;;;;;1.10;1.00;;;17.30;99.90;;;;;;5093773;28;20423;-70
2021/10/01 10:59:48;;;;;;;2.63;1.07;;;17.30;99.90;;;;;;5091881;28;20402;-69
2021/10/01 11:02:33;;;;;;;1.57;0.83;;;17.30;99.90;;;;;;5091553;28;20519;-70
2021/10/01 11:05:17;;;;;;;1.47;1.00;;;17.50;99.90;;;;;;5092219;28;20426;-70
2021/10/01 11:07:53;;;;;;;1.20;0.80;;;17.40;99.90;;;;;;5095795;28;20410;-70
2021/10/01 11:10:39;;;;;;;1.10;1.00;;;17.20;99.90;;;;;;5095799;28;20485;-70
2021/10/01 11:13:22;;;;;;;1.63;1.10;;;17.50;99.90;;;;;;5095335;28;20399;-70
2021/10/01 11:16:06;;;;;;;1.00;0.90;;;17.60;99.90;;;;;;5094599;28;20472;-70
2021/10/01 11:18:32;;;;;;;0.90;0.70;;;17.50;99.90;;;;;;5095117;28;20414;-70
2021/10/01 11:20:57;;;;;;;0.77;0.70;;;17.60;99.90;;;;;;5094880;28;20399;-69
2021/10/01 11:23:23;;;;;;;0.80;0.80;;;17.50;99.90;;;;;;5094440;28;20551;-70
2021/10/01 11:25:49;;;;;;;0.60;0.60;;;17.50;99.90;;;;;;5094497;28;20294;-70
2021/10/01 11:28:15;;;;;;;1.43;1.13;;;17.40;99.90;;;;;;5094361;28;20205;-70
2021/10/01 11:30:47;;;;;;;1.33;0.70;;;17.60;99.90;;;;;;5094687;28;20968;-70
2021/10/01 11:33:14;;;;;;;0.87;0.80;;;17.60;99.90;;;;;;5095229;28;20168;-69
2021/10/01 11:35:54;;;;;;;1.10;0.90;;;17.70;99.90;;;;;;5094136;28;20426;-70
2021/10/01 11:38:26;;;;;;;0.70;0.60;;;17.60;99.90;;;;;;5094166;28;20798;-71
2021/10/01 11:41:06;;;;;;;1.10;0.90;;;17.80;99.90;;;;;;5094193;28;20409;-68
2021/10/01 11:43:32;;;;;;;1.13;0.90;;;17.90;99.90;;;;;;5094263;28;20774;-71
2021/10/01 11:45:57;;;;;;;1.00;0.90;;;17.80;99.90;;;;;;5094505;28;20423;-71
2021/10/01 11:48:33;;;;;;;0.70;0.60;;;17.80;99.90;;;;;;5094250;28;20418;-70
2021/10/01 11:50:58;;;;;;;0.77;0.77;;;18.00;99.90;;;;;;5094563;28;20201;-68
2021/10/01 11:53:27;;;;;;;1.00;0.67;;;18.00;99.90;;;;;;5093979;28;20445;-69
2021/10/01 11:56:03;;;;;;;0.80;0.80;;;17.80;99.90;;;;;;5094063;28;20186;-70
2021/10/01 11:58:32;;;;;;;0.70;0.60;;;17.90;99.90;;;;;;5093904;28;20425;-69
2021/10/01 12:01:12;;;;;;;0.70;0.60;;;17.90;99.90;;;;;;5094267;28;20422;-69
2021/10/01 12:03:58;;;;;;;1.20;0.70;;;17.90;99.90;;;;;;5093862;28;20454;-70
2021/10/01 12:06:30;;;;;;;1.63;1.10;;;18.00;99.90;;;;;;5094215;28;20488;-70
2021/10/01 12:08:58;;;;;;;0.70;0.67;;;18.10;99.90;;;;;;5093637;28;20414;-70
2021/10/01 12:11:38;;;;;;;0.90;0.87;;;18.10;99.90;;;;;;5093720;28;20770;-70
2021/10/01 12:14:14;;;;;;;2.20;0.80;;;18.10;99.90;;;;;;5093973;28;20932;-70
2021/10/01 12:16:52;;;;;;;0.90;0.70;;;18.30;99.90;;;;;;5093285;28;20443;-70
2021/10/01 12:19:23;;;;;;;0.70;0.70;;;18.30;99.90;;;;;;5093507;28;20418;-70
2021/10/01 12:21:59;;;;;;;1.47;1.17;;;18.40;99.90;;;;;;5093927;28;20465;-70
2021/10/01 12:24:24;;;;;;;1.33;0.80;;;18.70;99.90;;;;;;5093956;28;20456;-70
2021/10/01 12:26:51;;;;;;;1.00;0.80;;;18.70;99.90;;;;;;5094331;28;20830;-70
2021/10/01 12:29:24;;;;;;;0.70;0.70;;;18.80;99.90;;;;;;5093518;28;20207;-70
2021/10/01 12:32:01;;;;;;;1.73;0.80;;;18.90;99.60;;;;;;5093541;28;20422;-69
2021/10/01 12:34:48;;;;;;;0.70;0.70;;;18.60;99.50;;;;;;5093082;28;20404;-70
2021/10/01 12:37:21;;;;;;;1.17;0.70;;;18.80;99.40;;;;;;5093045;28;20412;-69
2021/10/01 12:39:54;;;;;;;1.17;1.00;;;18.90;99.60;;;;;;5093014;28;20410;-69
2021/10/01 12:42:25;;;;;;;0.60;0.60;;;19.00;98.40;;;;;;5092750;28;20966;-69
2021/10/01 12:45:06;;;;;;;1.40;0.70;;;19.00;97.50;;;;;;5092990;28;20395;-69
2021/10/01 12:47:34;;;;;;;0.80;0.80;;;18.80;97.50;;;;;;5093265;28;20490;-69
2021/10/01 12:50:27;;;;;;;0.60;0.60;;;18.80;97.70;;;;;;5092659;28;20966;-69
2021/10/01 12:52:59;;;;;;;0.60;0.60;;;18.80;98.00;;;;;;5092737;28;20982;-69
2021/10/01 12:55:28;;;;;;;0.83;0.70;;;18.70;97.70;;;;;;5092513;28;20512;-69
2021/10/01 12:57:54;;;;;;;1.70;0.70;;;18.50;98.40;;;;;;5092752;28;20752;-69
2021/10/01 13:00:37;;;;;;;0.57;0.57;;;18.50;97.70;;;;;;5093030;28;20411;-69
2021/10/01 13:03:08;;;;;;;0.70;0.63;;;18.70;97.00;;;;;;5092305;28;20169;-69
2021/10/01 13:05:33;;;;;;;0.70;0.70;;;18.90;97.10;;;;;;5092568;28;20475;-69
2021/10/01 13:08:00;;;;;;;1.37;0.90;;;18.90;96.30;;;;;;5092386;28;20404;-69
2021/10/01 13:10:32;;;;;;;0.73;0.67;;;19.00;96.20;;;;;;5092403;28;20193;-69
2021/10/01 13:13:03;;;;;;;1.63;0.80;;;18.70;96.30;;;;;;5092186;28;20493;-69
2021/10/01 13:16:02;;;;;;;1.00;0.80;;;18.80;96.40;;;;;;5092104;28;20474;-69
2021/10/01 13:18:33;;;;;;;1.20;0.93;;;18.80;95.90;;;;;;5088148;28;20424;-69
2021/10/01 13:21:01;;;;;;;0.90;0.70;;;18.80;95.90;;;;;;5092550;28;20471;-69
2021/10/01 13:23:39;;;;;;;0.60;0.60;;;18.70;96.70;;;;;;5092172;28;20483;-69
2021/10/01 13:26:16;;;;;;;0.77;0.77;;;19.00;96.10;;;;;;5091941;28;20933;-69
2021/10/01 13:28:44;;;;;;;2.37;1.37;;;18.90;96.10;;;;;;5092251;28;20460;-69
2021/10/01 13:31:10;;;;;;;0.80;0.80;;;18.70;96.70;;;;;;5091981;28;20451;-70
2021/10/01 13:33:36;;;;;;;0.80;0.70;;;19.00;96.60;;;;;;5090954;28;20498;-69
2021/10/01 13:36:01;;;;;;;2.93;1.00;;;18.90;97.00;;;;;;5092045;28;20514;-68
2021/10/01 13:38:36;;;;;;;1.87;0.80;;;19.00;96.40;;;;;;5091808;28;20167;-70
2021/10/01 13:41:04;;;;;;;0.90;0.70;;;19.10;96.30;;;;;;5091888;28;20544;-69
2021/10/01 13:43:31;;;;;;;1.10;0.80;;;19.00;96.10;;;;;;5092300;28;20418;-69
2021/10/01 13:45:58;;;;;;;0.77;0.70;;;19.00;96.40;;;;;;5091926;28;20437;-69
2021/10/01 13:48:24;;;;;;;0.70;0.70;;;18.80;96.50;;;;;;5091886;28;20917;-68
2021/10/01 13:50:51;;;;;;;1.23;0.80;;;18.80;96.80;;;;;;5091859;28;20941;-68
2021/10/01 13:53:17;;;;;;;1.60;0.90;;;18.70;96.40;;;;;;5091613;28;20430;-68
2021/10/01 13:55:42;;;;;;;1.13;0.70;;;18.90;95.30;;;;;;5091890;28;20467;-69
2021/10/01 13:58:08;;;;;;;1.70;0.80;;;18.80;94.90;;;;;;5091738;28;20219;-69
2021/10/01 14:00:33;;;;;;;0.60;0.60;;;18.80;95.30;;;;;;5091685;28;20169;-69
2021/10/01 14:02:59;;;;;;;0.80;0.70;;;18.80;95.20;;;;;;5090358;28;20587;-69
2021/10/01 14:05:24;;;;;;;0.93;0.60;;;18.70;95.30;;;;;;5091449;28;20672;-69
2021/10/01 14:07:50;;;;;;;0.80;0.63;;;18.50;95.00;;;;;;5091457;28;20175;-69
2021/10/01 14:10:28;;;;;;;0.80;0.70;;;18.60;94.90;;;;;;5091893;28;20234;-69
2021/10/01 14:12:54;;;;;;;0.80;0.80;;;18.70;95.30;;;;;;5091828;28;20164;-69
2021/10/01 14:15:21;;;;;;;1.60;1.00;;;18.60;94.90;;;;;;5091547;28;20434;-69
2021/10/01 14:17:47;;;;;;;0.70;0.70;;;18.50;95.50;;;;;;5091349;28;20438;-69
2021/10/01 14:20:15;;;;;;;1.63;0.70;;;18.40;95.20;;;;;;5091402;28;20411;-69
2021/10/01 14:22:41;;;;;;;0.80;0.70;;;18.50;94.80;;;;;;5091673;28;20424;-69
2021/10/01 14:25:08;;;;;;;0.80;0.70;;;18.50;94.60;;;;;;5091311;28;20435;-69
2021/10/01 14:27:34;;;;;;;0.80;0.80;;;18.40;93.60;;;;;;5091845;28;20439;-69
2021/10/01 14:30:00;;;;;;;1.93;0.70;;;18.50;93.70;;;;;;5091342;28;21000;-69